Astoria, South Dakota
Current Conditions -  °F | °C
As of 10:14 AM on Thursday 18 Dec 2014 (Local Time) from KCNB Reporting Station
Overcast Overcast  
Wind Chill:   Ceiling: 7000
Heat Index: 16°   Visibility: 7mi
Dew Point: 15°   Wind: 6mph
Humidity: 93%   Direction: 130°SE
Pressure: 30.26"   Gusts: NA
Location:  44.56°N, 96.55°W
Report Text: KCNB 181614Z AUTO 13005KT 7SM OVC070 M09/M10 A3026 RMK AO2 T10871097
Loading
Personal Weather Stations






























Interactive Weather Map New forecast layout! Learn more

10-Day Weather Forecast

Advertisements
Track Severe Weather on mobile